sensor_id;sensor_type;location;lat;lon;timestamp;temperature;humidity
71563;DHT22;59391;52.504;13.438;2022-09-20T00:01:20;12.40;73.40
71563;DHT22;59391;52.504;13.438;2022-09-20T00:03:50;12.40;71.80
71563;DHT22;59391;52.504;13.438;2022-09-20T00:06:20;12.40;73.10
71563;DHT22;59391;52.504;13.438;2022-09-20T00:08:48;12.40;72.30
71563;DHT22;59391;52.504;13.438;2022-09-20T00:11:17;12.30;72.00
71563;DHT22;59391;52.504;13.438;2022-09-20T00:13:46;12.30;72.00
71563;DHT22;59391;52.504;13.438;2022-09-20T00:16:17;12.30;71.80
71563;DHT22;59391;52.504;13.438;2022-09-20T00:18:53;12.30;71.70
71563;DHT22;59391;52.504;13.438;2022-09-20T00:21:24;12.20;71.90
71563;DHT22;59391;52.504;13.438;2022-09-20T00:23:52;12.20;71.90
71563;DHT22;59391;52.504;13.438;2022-09-20T00:26:19;12.20;72.00
71563;DHT22;59391;52.504;13.438;2022-09-20T00:28:45;12.20;72.30
71563;DHT22;59391;52.504;13.438;2022-09-20T00:31:11;12.20;71.80
71563;DHT22;59391;52.504;13.438;2022-09-20T00:33:38;12.20;72.00
71563;DHT22;59391;52.504;13.438;2022-09-20T00:36:23;12.20;72.40
71563;DHT22;59391;52.504;13.438;2022-09-20T00:38:55;12.10;73.40
71563;DHT22;59391;52.504;13.438;2022-09-20T00:41:22;12.10;72.80
71563;DHT22;59391;52.504;13.438;2022-09-20T00:43:48;12.10;71.80
71563;DHT22;59391;52.504;13.438;2022-09-20T00:46:22;12.10;72.60
71563;DHT22;59391;52.504;13.438;2022-09-20T00:48:55;12.10;71.90
71563;DHT22;59391;52.504;13.438;2022-09-20T00:51:29;12.00;72.50
71563;DHT22;59391;52.504;13.438;2022-09-20T00:53:59;12.00;73.30
71563;DHT22;59391;52.504;13.438;2022-09-20T00:56:31;12.00;72.90
71563;DHT22;59391;52.504;13.438;2022-09-20T00:59:21;12.00;72.40
71563;DHT22;59391;52.504;13.438;2022-09-20T01:02:01;12.00;72.70
71563;DHT22;59391;52.504;13.438;2022-09-20T01:04:42;12.00;73.10
71563;DHT22;59391;52.504;13.438;2022-09-20T01:07:12;11.90;72.40
71563;DHT22;59391;52.504;13.438;2022-09-20T01:09:40;11.90;72.70
71563;DHT22;59391;52.504;13.438;2022-09-20T01:12:09;11.90;72.60
71563;DHT22;59391;52.504;13.438;2022-09-20T01:14:40;11.90;73.30
71563;DHT22;59391;52.504;13.438;2022-09-20T01:17:08;11.90;73.00
71563;DHT22;59391;52.504;13.438;2022-09-20T01:19:59;11.90;71.80
71563;DHT22;59391;52.504;13.438;2022-09-20T01:32:19;11.80;73.10
71563;DHT22;59391;52.504;13.438;2022-09-20T01:34:53;11.80;72.40
71563;DHT22;59391;52.504;13.438;2022-09-20T01:37:32;11.80;72.90
71563;DHT22;59391;52.504;13.438;2022-09-20T01:40:19;11.80;72.10
71563;DHT22;59391;52.504;13.438;2022-09-20T01:43:12;11.80;72.20
71563;DHT22;59391;52.504;13.438;2022-09-20T01:45:49;11.80;72.40
71563;DHT22;59391;52.504;13.438;2022-09-20T01:48:29;11.80;72.80
71563;DHT22;59391;52.504;13.438;2022-09-20T01:54:34;11.80;72.00
71563;DHT22;59391;52.504;13.438;2022-09-20T02:07:17;11.70;73.50
71563;DHT22;59391;52.504;13.438;2022-09-20T02:16:10;11.70;73.60
71563;DHT22;59391;52.504;13.438;2022-09-20T02:24:28;11.60;74.00
71563;DHT22;59391;52.504;13.438;2022-09-20T02:27:21;11.70;73.70
71563;DHT22;59391;52.504;13.438;2022-09-20T02:30:16;11.60;73.10
71563;DHT22;59391;52.504;13.438;2022-09-20T02:38:41;11.60;72.90
71563;DHT22;59391;52.504;13.438;2022-09-20T02:41:39;11.60;72.70
71563;DHT22;59391;52.504;13.438;2022-09-20T02:44:47;11.60;73.70
71563;DHT22;59391;52.504;13.438;2022-09-20T02:53:17;11.60;73.50
71563;DHT22;59391;52.504;13.438;2022-09-20T02:56:24;11.60;74.00
71563;DHT22;59391;52.504;13.438;2022-09-20T03:02:35;11.70;73.30
71563;DHT22;59391;52.504;13.438;2022-09-20T03:05:17;11.70;73.60
71563;DHT22;59391;52.504;13.438;2022-09-20T03:08:00;11.70;73.90
71563;DHT22;59391;52.504;13.438;2022-09-20T03:11:06;11.70;74.00
71563;DHT22;59391;52.504;13.438;2022-09-20T03:13:53;11.70;73.40
71563;DHT22;59391;52.504;13.438;2022-09-20T03:19:45;11.70;73.30
71563;DHT22;59391;52.504;13.438;2022-09-20T03:25:49;11.70;73.70
71563;DHT22;59391;52.504;13.438;2022-09-20T03:28:37;11.70;73.30
71563;DHT22;59391;52.504;13.438;2022-09-20T03:34:08;11.70;73.90
71563;DHT22;59391;52.504;13.438;2022-09-20T03:43:03;11.70;73.70
71563;DHT22;59391;52.504;13.438;2022-09-20T03:48:53;11.80;72.80
71563;DHT22;59391;52.504;13.438;2022-09-20T03:57:50;11.80;73.70
71563;DHT22;59391;52.504;13.438;2022-09-20T04:00:54;11.80;74.00
71563;DHT22;59391;52.504;13.438;2022-09-20T04:04:06;11.80;74.50
71563;DHT22;59391;52.504;13.438;2022-09-20T04:06:45;11.90;75.20
71563;DHT22;59391;52.504;13.438;2022-09-20T04:09:45;11.90;74.20
71563;DHT22;59391;52.504;13.438;2022-09-20T04:12:43;11.90;73.50
71563;DHT22;59391;52.504;13.438;2022-09-20T04:20:20;11.90;73.60
71563;DHT22;59391;52.504;13.438;2022-09-20T04:23:00;11.90;73.90
71563;DHT22;59391;52.504;13.438;2022-09-20T04:25:40;11.90;74.10
71563;DHT22;59391;52.504;13.438;2022-09-20T04:28:14;11.90;73.10
71563;DHT22;59391;52.504;13.438;2022-09-20T04:30:45;11.90;73.40
71563;DHT22;59391;52.504;13.438;2022-09-20T04:33:19;12.00;73.90
71563;DHT22;59391;52.504;13.438;2022-09-20T04:42:30;12.00;72.70
71563;DHT22;59391;52.504;13.438;2022-09-20T04:45:23;11.90;73.00
71563;DHT22;59391;52.504;13.438;2022-09-20T04:48:36;11.90;72.70
71563;DHT22;59391;52.504;13.438;2022-09-20T04:55:07;12.00;73.40
71563;DHT22;59391;52.504;13.438;2022-09-20T05:09:47;11.90;72.90
71563;DHT22;59391;52.504;13.438;2022-09-20T05:12:53;11.90;73.10
71563;DHT22;59391;52.504;13.438;2022-09-20T05:15:55;12.00;73.80
71563;DHT22;59391;52.504;13.438;2022-09-20T05:19:02;12.00;73.20
71563;DHT22;59391;52.504;13.438;2022-09-20T05:28:17;12.00;73.60
71563;DHT22;59391;52.504;13.438;2022-09-20T05:30:56;12.00;75.40
71563;DHT22;59391;52.504;13.438;2022-09-20T05:33:32;12.00;74.40
71563;DHT22;59391;52.504;13.438;2022-09-20T05:36:27;12.10;73.10
71563;DHT22;59391;52.504;13.438;2022-09-20T05:39:07;12.10;74.80
71563;DHT22;59391;52.504;13.438;2022-09-20T05:42:11;12.10;73.30
71563;DHT22;59391;52.504;13.438;2022-09-20T05:45:37;12.10;73.30
71563;DHT22;59391;52.504;13.438;2022-09-20T05:50:55;12.20;73.30
71563;DHT22;59391;52.504;13.438;2022-09-20T05:53:36;12.20;73.80
71563;DHT22;59391;52.504;13.438;2022-09-20T05:56:22;12.30;74.50
71563;DHT22;59391;52.504;13.438;2022-09-20T05:59:14;12.30;73.60
71563;DHT22;59391;52.504;13.438;2022-09-20T06:02:14;12.40;74.60
71563;DHT22;59391;52.504;13.438;2022-09-20T06:05:09;12.40;73.80
71563;DHT22;59391;52.504;13.438;2022-09-20T06:19:51;12.60;73.40
71563;DHT22;59391;52.504;13.438;2022-09-20T06:22:47;12.70;72.70
71563;DHT22;59391;52.504;13.438;2022-09-20T06:25:25;12.70;72.40
71563;DHT22;59391;52.504;13.438;2022-09-20T06:28:04;12.80;74.10
71563;DHT22;59391;52.504;13.438;2022-09-20T06:30:45;12.80;71.80
71563;DHT22;59391;52.504;13.438;2022-09-20T06:33:20;12.90;73.00
71563;DHT22;59391;52.504;13.438;2022-09-20T06:36:13;12.90;72.50
71563;DHT22;59391;52.504;13.438;2022-09-20T06:42:45;13.00;71.50
71563;DHT22;59391;52.504;13.438;2022-09-20T06:45:11;13.00;71.50
71563;DHT22;59391;52.504;13.438;2022-09-20T06:47:53;13.00;70.70
71563;DHT22;59391;52.504;13.438;2022-09-20T06:50:26;13.00;70.40
71563;DHT22;59391;52.504;13.438;2022-09-20T06:52:52;13.00;71.40
71563;DHT22;59391;52.504;13.438;2022-09-20T06:55:24;13.10;73.50
71563;DHT22;59391;52.504;13.438;2022-09-20T06:57:53;13.10;71.00
71563;DHT22;59391;52.504;13.438;2022-09-20T07:00:19;13.10;72.70
71563;DHT22;59391;52.504;13.438;2022-09-20T07:02:45;13.20;72.80
71563;DHT22;59391;52.504;13.438;2022-09-20T07:05:15;13.20;73.60
71563;DHT22;59391;52.504;13.438;2022-09-20T07:07:42;13.20;70.20
71563;DHT22;59391;52.504;13.438;2022-09-20T07:10:10;13.20;71.20
71563;DHT22;59391;52.504;13.438;2022-09-20T07:12:36;13.20;71.40
71563;DHT22;59391;52.504;13.438;2022-09-20T07:15:02;13.30;70.60
71563;DHT22;59391;52.504;13.438;2022-09-20T07:17:28;13.20;70.40
71563;DHT22;59391;52.504;13.438;2022-09-20T07:19:54;13.30;71.80
71563;DHT22;59391;52.504;13.438;2022-09-20T07:22:21;13.30;70.80
71563;DHT22;59391;52.504;13.438;2022-09-20T07:24:47;13.20;69.30
71563;DHT22;59391;52.504;13.438;2022-09-20T07:27:13;13.20;70.90
71563;DHT22;59391;52.504;13.438;2022-09-20T07:29:38;13.20;69.70
71563;DHT22;59391;52.504;13.438;2022-09-20T07:32:05;13.20;70.10
71563;DHT22;59391;52.504;13.438;2022-09-20T07:34:31;13.20;71.70
71563;DHT22;59391;52.504;13.438;2022-09-20T07:36:57;13.20;70.10
71563;DHT22;59391;52.504;13.438;2022-09-20T07:39:24;13.20;71.80
71563;DHT22;59391;52.504;13.438;2022-09-20T07:41:50;13.20;70.40
71563;DHT22;59391;52.504;13.438;2022-09-20T07:44:16;13.10;70.40
71563;DHT22;59391;52.504;13.438;2022-09-20T07:46:47;13.20;70.90
71563;DHT22;59391;52.504;13.438;2022-09-20T07:49:17;13.20;71.30
71563;DHT22;59391;52.504;13.438;2022-09-20T07:51:43;13.20;70.90
71563;DHT22;59391;52.504;13.438;2022-09-20T07:54:09;13.20;71.90
71563;DHT22;59391;52.504;13.438;2022-09-20T07:56:34;13.30;71.90
71563;DHT22;59391;52.504;13.438;2022-09-20T07:59:00;13.30;70.90
71563;DHT22;59391;52.504;13.438;2022-09-20T08:01:26;13.40;72.20
71563;DHT22;59391;52.504;13.438;2022-09-20T08:03:52;13.40;69.50
71563;DHT22;59391;52.504;13.438;2022-09-20T08:06:19;13.50;69.80
71563;DHT22;59391;52.504;13.438;2022-09-20T08:08:46;13.60;70.50
71563;DHT22;59391;52.504;13.438;2022-09-20T08:11:13;13.80;70.20
71563;DHT22;59391;52.504;13.438;2022-09-20T08:13:51;13.90;75.20
71563;DHT22;59391;52.504;13.438;2022-09-20T08:16:19;14.20;72.30
71563;DHT22;59391;52.504;13.438;2022-09-20T08:18:46;14.50;72.50
71563;DHT22;59391;52.504;13.438;2022-09-20T08:21:13;14.90;70.90
71563;DHT22;59391;52.504;13.438;2022-09-20T08:23:42;15.20;69.00
71563;DHT22;59391;52.504;13.438;2022-09-20T08:26:11;15.60;70.90
71563;DHT22;59391;52.504;13.438;2022-09-20T08:28:39;16.00;67.90
71563;DHT22;59391;52.504;13.438;2022-09-20T08:31:08;16.50;67.00
71563;DHT22;59391;52.504;13.438;2022-09-20T08:33:35;16.80;67.40
71563;DHT22;59391;52.504;13.438;2022-09-20T08:36:03;17.30;65.80
71563;DHT22;59391;52.504;13.438;2022-09-20T08:38:31;17.60;59.70
71563;DHT22;59391;52.504;13.438;2022-09-20T08:41:10;18.00;62.70
71563;DHT22;59391;52.504;13.438;2022-09-20T08:43:50;18.20;56.60
71563;DHT22;59391;52.504;13.438;2022-09-20T08:46:22;18.50;59.90
71563;DHT22;59391;52.504;13.438;2022-09-20T08:48:53;18.80;63.70
71563;DHT22;59391;52.504;13.438;2022-09-20T08:51:22;19.20;64.50
71563;DHT22;59391;52.504;13.438;2022-09-20T08:53:56;19.50;61.90
71563;DHT22;59391;52.504;13.438;2022-09-20T08:56:27;19.80;59.20
71563;DHT22;59391;52.504;13.438;2022-09-20T08:58:55;20.00;59.10
71563;DHT22;59391;52.504;13.438;2022-09-20T09:01:25;20.30;57.10
71563;DHT22;59391;52.504;13.438;2022-09-20T09:04:01;20.50;59.40
71563;DHT22;59391;52.504;13.438;2022-09-20T09:06:38;20.70;55.00
71563;DHT22;59391;52.504;13.438;2022-09-20T09:09:04;20.90;54.30
71563;DHT22;59391;52.504;13.438;2022-09-20T09:11:31;21.00;58.20
71563;DHT22;59391;52.504;13.438;2022-09-20T09:14:04;21.20;59.30
71563;DHT22;59391;52.504;13.438;2022-09-20T09:16:56;21.40;54.40
71563;DHT22;59391;52.504;13.438;2022-09-20T09:19:27;21.60;51.80
71563;DHT22;59391;52.504;13.438;2022-09-20T09:22:00;21.80;56.50
71563;DHT22;59391;52.504;13.438;2022-09-20T09:24:28;22.00;55.80
71563;DHT22;59391;52.504;13.438;2022-09-20T09:27:13;22.20;50.60
71563;DHT22;59391;52.504;13.438;2022-09-20T09:29:51;22.30;52.30
71563;DHT22;59391;52.504;13.438;2022-09-20T09:32:26;22.50;53.70
71563;DHT22;59391;52.504;13.438;2022-09-20T09:38:00;22.90;46.30
71563;DHT22;59391;52.504;13.438;2022-09-20T09:40:30;23.10;56.90
71563;DHT22;59391;52.504;13.438;2022-09-20T09:42:59;23.20;48.10
71563;DHT22;59391;52.504;13.438;2022-09-20T09:45:32;23.30;50.40
71563;DHT22;59391;52.504;13.438;2022-09-20T09:48:21;23.40;47.90
71563;DHT22;59391;52.504;13.438;2022-09-20T09:51:12;23.50;45.50
71563;DHT22;59391;52.504;13.438;2022-09-20T09:53:42;23.50;49.00
71563;DHT22;59391;52.504;13.438;2022-09-20T09:56:31;23.40;47.90
71563;DHT22;59391;52.504;13.438;2022-09-20T10:02:43;23.00;51.00
71563;DHT22;59391;52.504;13.438;2022-09-20T10:05:49;22.70;46.80
71563;DHT22;59391;52.504;13.438;2022-09-20T10:15:12;22.30;42.80
71563;DHT22;59391;52.504;13.438;2022-09-20T10:17:56;22.20;44.50
71563;DHT22;59391;52.504;13.438;2022-09-20T10:24:15;22.00;50.40
71563;DHT22;59391;52.504;13.438;2022-09-20T10:27:04;21.80;47.60
71563;DHT22;59391;52.504;13.438;2022-09-20T10:29:45;21.50;46.10
71563;DHT22;59391;52.504;13.438;2022-09-20T10:38:36;20.80;47.80
71563;DHT22;59391;52.504;13.438;2022-09-20T10:48:04;20.10;49.80
71563;DHT22;59391;52.504;13.438;2022-09-20T10:51:05;19.80;49.20
71563;DHT22;59391;52.504;13.438;2022-09-20T10:56:44;19.50;51.40
71563;DHT22;59391;52.504;13.438;2022-09-20T11:02:01;19.10;52.50
71563;DHT22;59391;52.504;13.438;2022-09-20T11:04:55;18.90;53.90
71563;DHT22;59391;52.504;13.438;2022-09-20T11:13:21;18.10;54.60
71563;DHT22;59391;52.504;13.438;2022-09-20T11:16:02;17.90;56.90
71563;DHT22;59391;52.504;13.438;2022-09-20T11:18:49;17.70;56.40
71563;DHT22;59391;52.504;13.438;2022-09-20T11:24:34;17.20;57.60
71563;DHT22;59391;52.504;13.438;2022-09-20T11:27:38;16.80;59.80
71563;DHT22;59391;52.504;13.438;2022-09-20T11:30:20;16.50;60.70
71563;DHT22;59391;52.504;13.438;2022-09-20T11:35:37;15.70;63.20
71563;DHT22;59391;52.504;13.438;2022-09-20T11:38:31;15.40;63.90
71563;DHT22;59391;52.504;13.438;2022-09-20T11:41:15;15.10;64.10
71563;DHT22;59391;52.504;13.438;2022-09-20T11:43:47;14.80;65.10
71563;DHT22;59391;52.504;13.438;2022-09-20T11:46:20;14.60;65.80
71563;DHT22;59391;52.504;13.438;2022-09-20T11:49:10;14.40;66.90
71563;DHT22;59391;52.504;13.438;2022-09-20T11:57:59;13.90;67.70
71563;DHT22;59391;52.504;13.438;2022-09-20T12:00:32;13.80;68.00
71563;DHT22;59391;52.504;13.438;2022-09-20T12:03:02;13.70;69.10
71563;DHT22;59391;52.504;13.438;2022-09-20T12:05:40;13.70;70.00
71563;DHT22;59391;52.504;13.438;2022-09-20T12:08:17;13.60;70.40
71563;DHT22;59391;52.504;13.438;2022-09-20T12:11:04;13.60;70.30
71563;DHT22;59391;52.504;13.438;2022-09-20T12:13:35;13.60;71.50
71563;DHT22;59391;52.504;13.438;2022-09-20T12:16:14;13.70;72.60
71563;DHT22;59391;52.504;13.438;2022-09-20T12:19:01;13.80;71.30
71563;DHT22;59391;52.504;13.438;2022-09-20T12:24:27;14.30;73.20
71563;DHT22;59391;52.504;13.438;2022-09-20T12:29:54;15.30;75.00
71563;DHT22;59391;52.504;13.438;2022-09-20T12:33:00;15.90;75.30
71563;DHT22;59391;52.504;13.438;2022-09-20T12:41:07;17.60;66.10
71563;DHT22;59391;52.504;13.438;2022-09-20T12:43:54;17.90;69.20
71563;DHT22;59391;52.504;13.438;2022-09-20T12:46:36;18.20;64.70
71563;DHT22;59391;52.504;13.438;2022-09-20T12:52:49;18.40;60.20
71563;DHT22;59391;52.504;13.438;2022-09-20T12:55:40;18.40;57.40
71563;DHT22;59391;52.504;13.438;2022-09-20T13:03:33;18.00;58.30
71563;DHT22;59391;52.504;13.438;2022-09-20T13:11:39;17.60;56.80
71563;DHT22;59391;52.504;13.438;2022-09-20T13:14:17;17.50;55.20
71563;DHT22;59391;52.504;13.438;2022-09-20T13:17:03;17.40;53.60
71563;DHT22;59391;52.504;13.438;2022-09-20T13:19:43;17.20;53.30
71563;DHT22;59391;52.504;13.438;2022-09-20T13:22:19;17.00;54.00
71563;DHT22;59391;52.504;13.438;2022-09-20T13:24:55;16.90;54.60
71563;DHT22;59391;52.504;13.438;2022-09-20T13:27:33;16.70;56.20
71563;DHT22;59391;52.504;13.438;2022-09-20T13:30:23;16.60;54.80
71563;DHT22;59391;52.504;13.438;2022-09-20T13:32:51;16.40;56.40
71563;DHT22;59391;52.504;13.438;2022-09-20T13:35:23;16.30;54.50
71563;DHT22;59391;52.504;13.438;2022-09-20T13:38:07;16.30;57.50
71563;DHT22;59391;52.504;13.438;2022-09-20T13:40:41;16.30;58.10
71563;DHT22;59391;52.504;13.438;2022-09-20T13:43:26;16.30;57.00
71563;DHT22;59391;52.504;13.438;2022-09-20T13:46:41;16.40;58.70
71563;DHT22;59391;52.504;13.438;2022-09-20T13:49:14;16.60;55.90
71563;DHT22;59391;52.504;13.438;2022-09-20T13:51:45;16.70;57.20
71563;DHT22;59391;52.504;13.438;2022-09-20T13:54:19;16.90;58.10
71563;DHT22;59391;52.504;13.438;2022-09-20T13:56:56;17.00;56.40
71563;DHT22;59391;52.504;13.438;2022-09-20T13:59:34;17.20;58.70
71563;DHT22;59391;52.504;13.438;2022-09-20T14:02:19;17.40;57.80
71563;DHT22;59391;52.504;13.438;2022-09-20T14:04:50;17.50;57.60
71563;DHT22;59391;52.504;13.438;2022-09-20T14:07:19;17.70;55.20
71563;DHT22;59391;52.504;13.438;2022-09-20T14:09:45;17.90;57.00
71563;DHT22;59391;52.504;13.438;2022-09-20T14:12:12;18.00;54.40
71563;DHT22;59391;52.504;13.438;2022-09-20T14:14:41;18.10;52.20
71563;DHT22;59391;52.504;13.438;2022-09-20T14:17:10;18.20;57.10
71563;DHT22;59391;52.504;13.438;2022-09-20T14:19:41;18.20;52.80
71563;DHT22;59391;52.504;13.438;2022-09-20T14:22:26;18.30;53.20
71563;DHT22;59391;52.504;13.438;2022-09-20T14:25:00;18.40;50.60
71563;DHT22;59391;52.504;13.438;2022-09-20T14:27:43;18.50;51.70
71563;DHT22;59391;52.504;13.438;2022-09-20T14:30:47;18.50;52.70
71563;DHT22;59391;52.504;13.438;2022-09-20T14:33:16;18.50;49.30
71563;DHT22;59391;52.504;13.438;2022-09-20T14:35:51;18.60;53.10
71563;DHT22;59391;52.504;13.438;2022-09-20T14:38:26;18.60;52.30
71563;DHT22;59391;52.504;13.438;2022-09-20T14:40:59;18.60;52.10
71563;DHT22;59391;52.504;13.438;2022-09-20T14:43:31;18.50;51.60
71563;DHT22;59391;52.504;13.438;2022-09-20T14:46:36;18.60;53.40
71563;DHT22;59391;52.504;13.438;2022-09-20T14:49:20;18.50;52.10
71563;DHT22;59391;52.504;13.438;2022-09-20T14:55:16;18.50;48.50
71563;DHT22;59391;52.504;13.438;2022-09-20T14:57:46;18.50;49.50
71563;DHT22;59391;52.504;13.438;2022-09-20T15:00:23;18.50;51.00
71563;DHT22;59391;52.504;13.438;2022-09-20T15:02:54;18.40;52.60
71563;DHT22;59391;52.504;13.438;2022-09-20T15:05:35;18.40;52.90
71563;DHT22;59391;52.504;13.438;2022-09-20T15:08:13;18.30;52.40
71563;DHT22;59391;52.504;13.438;2022-09-20T15:10:51;18.10;50.20
71563;DHT22;59391;52.504;13.438;2022-09-20T15:13:29;18.00;50.30
71563;DHT22;59391;52.504;13.438;2022-09-20T15:16:40;17.90;51.20
71563;DHT22;59391;52.504;13.438;2022-09-20T15:19:11;17.80;51.80
71563;DHT22;59391;52.504;13.438;2022-09-20T15:21:39;17.70;53.80
71563;DHT22;59391;52.504;13.438;2022-09-20T15:24:05;17.70;54.60
71563;DHT22;59391;52.504;13.438;2022-09-20T15:26:30;17.60;53.70
71563;DHT22;59391;52.504;13.438;2022-09-20T15:28:59;17.60;54.60
71563;DHT22;59391;52.504;13.438;2022-09-20T15:31:27;17.50;53.70
71563;DHT22;59391;52.504;13.438;2022-09-20T15:33:56;17.40;53.40
71563;DHT22;59391;52.504;13.438;2022-09-20T15:36:22;17.30;52.50
71563;DHT22;59391;52.504;13.438;2022-09-20T15:38:56;17.20;52.30
71563;DHT22;59391;52.504;13.438;2022-09-20T15:41:22;17.20;55.20
71563;DHT22;59391;52.504;13.438;2022-09-20T15:43:50;17.10;53.40
71563;DHT22;59391;52.504;13.438;2022-09-20T15:46:21;17.00;54.00
71563;DHT22;59391;52.504;13.438;2022-09-20T15:48:53;16.90;52.70
71563;DHT22;59391;52.504;13.438;2022-09-20T15:51:20;16.70;54.70
71563;DHT22;59391;52.504;13.438;2022-09-20T15:53:56;16.50;55.60
71563;DHT22;59391;52.504;13.438;2022-09-20T15:56:29;16.40;56.50
71563;DHT22;59391;52.504;13.438;2022-09-20T15:58:58;16.20;57.90
71563;DHT22;59391;52.504;13.438;2022-09-20T16:01:36;16.00;58.70
71563;DHT22;59391;52.504;13.438;2022-09-20T16:04:14;15.80;58.80
71563;DHT22;59391;52.504;13.438;2022-09-20T16:06:44;15.70;59.70
71563;DHT22;59391;52.504;13.438;2022-09-20T16:09:12;15.60;60.50
71563;DHT22;59391;52.504;13.438;2022-09-20T16:11:38;15.40;61.00
71563;DHT22;59391;52.504;13.438;2022-09-20T16:14:05;15.30;60.00
71563;DHT22;59391;52.504;13.438;2022-09-20T16:16:32;15.20;61.50
71563;DHT22;59391;52.504;13.438;2022-09-20T16:18:59;15.10;62.30
71563;DHT22;59391;52.504;13.438;2022-09-20T16:21:47;15.10;61.20
71563;DHT22;59391;52.504;13.438;2022-09-20T16:24:15;15.10;62.30
71563;DHT22;59391;52.504;13.438;2022-09-20T16:26:41;15.10;63.00
71563;DHT22;59391;52.504;13.438;2022-09-20T16:29:07;15.10;63.50
71563;DHT22;59391;52.504;13.438;2022-09-20T16:34:10;15.10;63.30
71563;DHT22;59391;52.504;13.438;2022-09-20T16:36:44;15.20;62.80
71563;DHT22;59391;52.504;13.438;2022-09-20T16:39:18;15.20;61.40
71563;DHT22;59391;52.504;13.438;2022-09-20T16:41:46;15.30;61.10
71563;DHT22;59391;52.504;13.438;2022-09-20T16:44:15;15.30;60.40
71563;DHT22;59391;52.504;13.438;2022-09-20T16:46:41;15.40;61.70
71563;DHT22;59391;52.504;13.438;2022-09-20T16:49:09;15.50;61.00
71563;DHT22;59391;52.504;13.438;2022-09-20T16:51:37;15.40;60.10
71563;DHT22;59391;52.504;13.438;2022-09-20T16:54:14;15.50;60.20
71563;DHT22;59391;52.504;13.438;2022-09-20T16:56:45;15.50;59.80
71563;DHT22;59391;52.504;13.438;2022-09-20T16:59:14;15.50;59.60
71563;DHT22;59391;52.504;13.438;2022-09-20T17:01:42;15.50;59.00
71563;DHT22;59391;52.504;13.438;2022-09-20T17:04:10;15.40;60.00
71563;DHT22;59391;52.504;13.438;2022-09-20T17:06:41;15.40;59.60
71563;DHT22;59391;52.504;13.438;2022-09-20T17:09:07;15.40;60.10
71563;DHT22;59391;52.504;13.438;2022-09-20T17:11:37;15.30;60.30
71563;DHT22;59391;52.504;13.438;2022-09-20T17:14:05;15.30;60.20
71563;DHT22;59391;52.504;13.438;2022-09-20T17:16:37;15.30;61.40
71563;DHT22;59391;52.504;13.438;2022-09-20T17:19:09;15.20;61.10
71563;DHT22;59391;52.504;13.438;2022-09-20T17:21:42;15.20;61.80
71563;DHT22;59391;52.504;13.438;2022-09-20T17:24:13;15.20;62.00
71563;DHT22;59391;52.504;13.438;2022-09-20T17:26:40;15.20;62.50
71563;DHT22;59391;52.504;13.438;2022-09-20T17:29:11;15.10;62.20
71563;DHT22;59391;52.504;13.438;2022-09-20T17:31:41;15.10;62.40
71563;DHT22;59391;52.504;13.438;2022-09-20T17:34:11;15.10;62.80
71563;DHT22;59391;52.504;13.438;2022-09-20T17:36:41;15.10;63.50
71563;DHT22;59391;52.504;13.438;2022-09-20T17:39:09;15.10;63.40
71563;DHT22;59391;52.504;13.438;2022-09-20T17:41:41;15.00;63.80
71563;DHT22;59391;52.504;13.438;2022-09-20T17:44:08;15.00;64.10
71563;DHT22;59391;52.504;13.438;2022-09-20T17:46:42;15.00;64.30
71563;DHT22;59391;52.504;13.438;2022-09-20T17:49:12;15.00;64.60
71563;DHT22;59391;52.504;13.438;2022-09-20T17:51:43;15.00;65.00
71563;DHT22;59391;52.504;13.438;2022-09-20T17:54:11;15.00;64.90
71563;DHT22;59391;52.504;13.438;2022-09-20T17:56:39;14.90;65.30
71563;DHT22;59391;52.504;13.438;2022-09-20T17:59:11;14.90;64.80
71563;DHT22;59391;52.504;13.438;2022-09-20T18:01:39;14.90;64.40
71563;DHT22;59391;52.504;13.438;2022-09-20T18:04:06;14.90;64.50
71563;DHT22;59391;52.504;13.438;2022-09-20T18:06:38;14.90;64.30
71563;DHT22;59391;52.504;13.438;2022-09-20T18:09:10;14.90;64.20
71563;DHT22;59391;52.504;13.438;2022-09-20T18:11:41;14.80;63.90
71563;DHT22;59391;52.504;13.438;2022-09-20T18:14:10;14.80;63.50
71563;DHT22;59391;52.504;13.438;2022-09-20T18:16:36;14.80;64.10
71563;DHT22;59391;52.504;13.438;2022-09-20T18:19:04;14.70;64.10
71563;DHT22;59391;52.504;13.438;2022-09-20T18:21:37;14.70;64.20
71563;DHT22;59391;52.504;13.438;2022-09-20T18:24:06;14.70;63.70
71563;DHT22;59391;52.504;13.438;2022-09-20T18:26:36;14.70;63.60
71563;DHT22;59391;52.504;13.438;2022-09-20T18:29:09;14.70;63.70
71563;DHT22;59391;52.504;13.438;2022-09-20T18:31:41;14.60;63.60
71563;DHT22;59391;52.504;13.438;2022-09-20T18:36:46;14.60;63.50
71563;DHT22;59391;52.504;13.438;2022-09-20T18:39:22;14.60;64.30
71563;DHT22;59391;52.504;13.438;2022-09-20T18:41:49;14.50;63.30
71563;DHT22;59391;52.504;13.438;2022-09-20T18:44:17;14.50;63.50
71563;DHT22;59391;52.504;13.438;2022-09-20T18:46:44;14.50;63.90
71563;DHT22;59391;52.504;13.438;2022-09-20T18:49:11;14.40;63.60
71563;DHT22;59391;52.504;13.438;2022-09-20T18:51:39;14.40;64.50
71563;DHT22;59391;52.504;13.438;2022-09-20T18:54:09;14.40;64.10
71563;DHT22;59391;52.504;13.438;2022-09-20T18:56:38;14.40;64.20
71563;DHT22;59391;52.504;13.438;2022-09-20T18:59:24;14.40;63.70
71563;DHT22;59391;52.504;13.438;2022-09-20T19:13:22;14.30;64.90
71563;DHT22;59391;52.504;13.438;2022-09-20T19:16:18;14.30;64.80
71563;DHT22;59391;52.504;13.438;2022-09-20T19:25:30;14.20;64.80
71563;DHT22;59391;52.504;13.438;2022-09-20T19:28:07;14.20;64.80
71563;DHT22;59391;52.504;13.438;2022-09-20T19:30:34;14.20;64.80
71563;DHT22;59391;52.504;13.438;2022-09-20T19:33:01;14.10;64.60
71563;DHT22;59391;52.504;13.438;2022-09-20T19:35:31;14.10;64.10
71563;DHT22;59391;52.504;13.438;2022-09-20T19:38:25;14.10;64.90
71563;DHT22;59391;52.504;13.438;2022-09-20T19:41:29;14.10;64.90
71563;DHT22;59391;52.504;13.438;2022-09-20T19:45:00;14.10;64.70
71563;DHT22;59391;52.504;13.438;2022-09-20T19:47:46;14.10;64.70
71563;DHT22;59391;52.504;13.438;2022-09-20T19:50:44;14.00;65.20
71563;DHT22;59391;52.504;13.438;2022-09-20T19:53:14;14.00;65.30
71563;DHT22;59391;52.504;13.438;2022-09-20T19:55:46;14.00;64.70
71563;DHT22;59391;52.504;13.438;2022-09-20T19:58:14;14.00;64.90
71563;DHT22;59391;52.504;13.438;2022-09-20T20:00:43;13.90;65.00
71563;DHT22;59391;52.504;13.438;2022-09-20T20:03:11;13.90;65.40
71563;DHT22;59391;52.504;13.438;2022-09-20T20:05:41;13.90;65.10